createdAt,value
2023-01-09T00:00:50.834Z,1.48
2023-01-09T00:03:17.872Z,1.60
2023-01-09T00:05:44.567Z,1.48
2023-01-09T00:08:11.263Z,1.73
2023-01-09T00:10:38.020Z,1.48
2023-01-09T00:13:04.834Z,1.27
2023-01-09T00:15:31.655Z,1.58
2023-01-09T00:17:58.348Z,1.60
2023-01-09T00:20:25.190Z,1.50
2023-01-09T00:22:51.908Z,1.42
2023-01-09T00:25:18.599Z,1.42
2023-01-09T00:27:45.318Z,1.67
2023-01-09T00:30:12.367Z,1.80
2023-01-09T00:32:39.099Z,1.77
2023-01-09T00:35:06.424Z,1.63
2023-01-09T00:37:33.153Z,1.80
2023-01-09T00:39:59.886Z,1.60
2023-01-09T00:42:30.579Z,1.70
2023-01-09T00:45:09.207Z,1.75
2023-01-09T00:47:40.224Z,2.05
2023-01-09T00:50:16.980Z,1.60
2023-01-09T00:52:44.958Z,1.90
2023-01-09T00:55:12.845Z,1.70
2023-01-09T00:57:39.915Z,1.73
2023-01-09T01:00:08.726Z,1.58
2023-01-09T01:02:35.649Z,2.05
2023-01-09T01:05:20.911Z,2.08
2023-01-09T01:07:47.634Z,1.85
2023-01-09T01:10:23.294Z,1.80
2023-01-09T01:12:51.159Z,2.03
2023-01-09T01:15:19.288Z,2.10
2023-01-09T01:17:46.537Z,1.90
2023-01-09T01:20:16.381Z,2.03
2023-01-09T01:22:43.158Z,2.25
2023-01-09T01:25:11.775Z,2.08
2023-01-09T01:27:38.733Z,2.03
2023-01-09T01:30:07.591Z,2.10
2023-01-09T01:32:34.478Z,2.05
2023-01-09T01:35:01.175Z,2.15
2023-01-09T01:37:27.952Z,2.40
2023-01-09T01:39:55.085Z,2.40
2023-01-09T01:42:21.886Z,2.55
2023-01-09T01:45:07.577Z,2.40
2023-01-09T01:47:44.104Z,2.40
2023-01-09T01:50:36.920Z,2.80
2023-01-09T01:53:12.043Z,2.53
2023-01-09T01:56:03.739Z,2.53
2023-01-09T01:58:31.260Z,3.05
2023-01-09T02:00:58.489Z,3.03
2023-01-09T02:03:28.175Z,2.88
2023-01-09T02:05:55.104Z,3.08
2023-01-09T02:08:22.376Z,3.10
2023-01-09T02:10:50.104Z,3.25
2023-01-09T02:13:17.230Z,3.40
2023-01-09T02:16:05.275Z,3.10
2023-01-09T02:18:32.376Z,3.47
2023-01-09T02:21:14.815Z,2.92
2023-01-09T02:24:06.548Z,3.03
2023-01-09T02:27:02.277Z,3.10
2023-01-09T02:29:47.767Z,3.15
2023-01-09T02:32:33.607Z,3.78
2023-01-09T02:35:15.021Z,3.65
2023-01-09T02:37:51.676Z,3.80
2023-01-09T02:40:28.714Z,3.42
2023-01-09T02:42:59.194Z,3.70
2023-01-09T02:45:26.274Z,3.30
2023-01-09T02:47:53.089Z,3.20
2023-01-09T02:51:00.269Z,2.78
2023-01-09T02:53:29.777Z,3.35
2023-01-09T02:56:10.187Z,3.30
2023-01-09T03:01:06.378Z,2.92
2023-01-09T03:03:45.173Z,3.20
2023-01-09T03:06:30.915Z,2.90
2023-01-09T03:09:02.859Z,3.45
2023-01-09T03:11:38.993Z,3.17
2023-01-09T03:14:12.166Z,2.80
2023-01-09T03:16:39.352Z,2.88
2023-01-09T03:19:11.627Z,3.22
2023-01-09T03:21:39.677Z,3.08
2023-01-09T03:24:06.845Z,3.00
2023-01-09T03:26:33.771Z,3.05
2023-01-09T03:29:00.683Z,3.08
2023-01-09T03:31:27.728Z,3.17
2023-01-09T03:33:54.621Z,3.00
2023-01-09T03:36:22.691Z,3.13
2023-01-09T03:38:49.790Z,2.70
2023-01-09T03:41:16.501Z,2.75
2023-01-09T03:43:43.512Z,2.97
2023-01-09T03:46:10.399Z,2.78
2023-01-09T03:48:37.288Z,3.20
2023-01-09T03:51:04.084Z,2.83
2023-01-09T03:53:30.772Z,3.00
2023-01-09T03:55:58.084Z,3.17
2023-01-09T03:58:26.622Z,2.67
2023-01-09T04:01:02.970Z,3.00
2023-01-09T04:03:29.872Z,2.67
2023-01-09T04:05:56.641Z,3.03
2023-01-09T04:08:23.318Z,2.75
2023-01-09T04:10:50.965Z,2.72
2023-01-09T04:13:18.118Z,3.08
2023-01-09T04:15:44.889Z,2.38
2023-01-09T04:18:11.767Z,2.40
2023-01-09T04:20:38.723Z,2.40
2023-01-09T04:23:05.602Z,2.40
2023-01-09T04:25:32.390Z,2.50
2023-01-09T04:27:59.130Z,2.70
2023-01-09T04:30:25.821Z,2.40
2023-01-09T04:32:52.617Z,2.20
2023-01-09T04:35:19.839Z,2.63
2023-01-09T04:37:46.655Z,2.00
2023-01-09T04:40:14.072Z,2.90
2023-01-09T04:42:41.257Z,1.92
2023-01-09T04:45:10.513Z,2.30
2023-01-09T04:47:37.450Z,2.60
2023-01-09T04:50:04.922Z,2.03
2023-01-09T04:52:31.613Z,1.98
2023-01-09T04:54:58.312Z,2.20
2023-01-09T04:57:25.080Z,2.15
2023-01-09T04:59:52.330Z,2.30
2023-01-09T05:02:20.119Z,2.30
2023-01-09T05:04:46.774Z,2.20
2023-01-09T05:07:13.551Z,2.20
2023-01-09T05:09:40.279Z,1.90
2023-01-09T05:12:07.196Z,1.90
2023-01-09T05:14:33.979Z,2.05
2023-01-09T05:17:00.676Z,2.08
2023-01-09T05:19:27.417Z,2.05
2023-01-09T05:21:54.152Z,2.05
2023-01-09T05:24:20.931Z,2.30
2023-01-09T05:26:47.680Z,2.10
2023-01-09T05:29:14.408Z,2.08
2023-01-09T05:31:41.122Z,1.80
2023-01-09T05:34:07.874Z,1.88
2023-01-09T05:36:34.565Z,2.17
2023-01-09T05:39:02.726Z,2.28
2023-01-09T05:41:29.485Z,2.08
2023-01-09T05:43:56.347Z,1.90
2023-01-09T05:46:23.174Z,1.90
2023-01-09T05:48:49.878Z,2.10
2023-01-09T05:51:16.597Z,1.65
2023-01-09T05:53:43.303Z,2.20
2023-01-09T05:56:11.720Z,1.90
2023-01-09T05:58:38.678Z,2.00
2023-01-09T06:01:06.125Z,2.03
2023-01-09T06:03:33.133Z,2.10
2023-01-09T06:05:59.874Z,1.92
2023-01-09T06:08:26.574Z,1.90
2023-01-09T06:10:53.270Z,1.88
2023-01-09T06:13:19.951Z,2.03
2023-01-09T06:15:48.399Z,2.08
2023-01-09T06:18:15.481Z,2.05
2023-01-09T06:20:44.017Z,2.17
2023-01-09T06:23:12.784Z,1.83
2023-01-09T06:25:40.156Z,2.10
2023-01-09T06:28:07.578Z,2.40
2023-01-09T06:30:34.683Z,2.08
2023-01-09T06:33:01.408Z,2.20
2023-01-09T06:35:28.199Z,1.98
2023-01-09T06:37:54.943Z,2.40
2023-01-09T06:40:21.645Z,2.20
2023-01-09T06:42:50.024Z,2.30
2023-01-09T06:45:16.950Z,2.25
2023-01-09T06:47:43.851Z,2.03
2023-01-09T06:50:11.902Z,2.47
2023-01-09T06:52:39.795Z,1.80
2023-01-09T06:55:07.543Z,2.28
2023-01-09T06:57:34.272Z,2.47
2023-01-09T07:00:01.184Z,1.90
2023-01-09T07:02:28.164Z,2.47
2023-01-09T07:04:55.029Z,2.50
2023-01-09T07:07:22.591Z,2.03
2023-01-09T07:09:49.920Z,2.63
2023-01-09T07:12:16.755Z,2.25
2023-01-09T07:14:43.502Z,2.40
2023-01-09T07:17:13.711Z,2.55
2023-01-09T07:19:40.783Z,2.50
2023-01-09T07:22:08.214Z,2.15
2023-01-09T07:24:34.974Z,2.67
2023-01-09T07:27:02.438Z,2.45
2023-01-09T07:29:29.326Z,2.80
2023-01-09T07:31:56.050Z,2.72
2023-01-09T07:34:22.733Z,3.45
2023-01-09T07:36:51.129Z,3.67
2023-01-09T07:39:17.916Z,3.20
2023-01-09T07:41:45.129Z,3.50
2023-01-09T07:44:12.171Z,3.30
2023-01-09T07:46:39.198Z,3.47
2023-01-09T07:49:06.125Z,3.70
2023-01-09T07:51:32.935Z,3.35
2023-01-09T07:53:59.620Z,3.60
2023-01-09T07:56:26.332Z,3.72
2023-01-09T07:58:53.047Z,3.33
2023-01-09T08:01:19.867Z,2.40
2023-01-09T08:03:46.640Z,2.28
2023-01-09T08:06:13.424Z,1.80
2023-01-09T08:08:40.106Z,1.60
2023-01-09T08:11:06.900Z,1.40
2023-01-09T08:13:33.565Z,1.27
2023-01-09T08:16:00.538Z,2.08
2023-01-09T08:18:27.245Z,1.40
2023-01-09T08:20:53.992Z,1.38
2023-01-09T08:23:20.839Z,1.70
2023-01-09T08:25:47.544Z,1.90
2023-01-09T08:28:14.293Z,1.90
2023-01-09T08:30:41.161Z,2.03
2023-01-09T08:33:07.945Z,1.63
2023-01-09T08:35:35.388Z,2.10
2023-01-09T08:38:02.101Z,1.80
2023-01-09T08:40:28.859Z,1.90
2023-01-09T08:43:14.368Z,1.77
2023-01-09T08:45:59.835Z,2.17
2023-01-09T08:48:26.526Z,1.90
2023-01-09T08:50:54.360Z,1.92
2023-01-09T08:53:21.315Z,1.88
2023-01-09T08:55:48.116Z,1.90
2023-01-09T08:58:14.967Z,2.55
2023-01-09T09:00:41.944Z,2.22
2023-01-09T09:03:10.791Z,2.30
2023-01-09T09:05:37.984Z,2.42
2023-01-09T09:08:04.816Z,2.20
2023-01-09T09:10:31.520Z,2.28
2023-01-09T09:12:59.423Z,2.10
2023-01-09T09:15:29.553Z,1.85
2023-01-09T09:17:58.593Z,2.33
2023-01-09T09:20:36.454Z,2.10
2023-01-09T09:23:03.857Z,2.22
2023-01-09T09:25:31.059Z,1.92
2023-01-09T09:27:57.907Z,2.60
2023-01-09T09:30:25.166Z,2.20
2023-01-09T09:32:52.112Z,2.15
2023-01-09T09:35:20.938Z,1.85
2023-01-09T09:37:55.931Z,2.00
2023-01-09T09:40:35.705Z,1.85
2023-01-09T09:43:27.419Z,2.00
2023-01-09T09:45:59.791Z,1.92
2023-01-09T09:48:38.100Z,2.20
2023-01-09T09:51:31.167Z,2.50
2023-01-09T09:54:13.778Z,2.45
2023-01-09T09:56:52.793Z,2.28
2023-01-09T09:59:22.668Z,2.10
2023-01-09T10:02:01.910Z,3.03
2023-01-09T10:04:32.233Z,2.17
2023-01-09T10:07:06.675Z,2.47
2023-01-09T10:09:49.191Z,1.90
2023-01-09T10:12:25.788Z,2.20
2023-01-09T10:14:52.981Z,1.70
2023-01-09T10:17:51.421Z,2.55
2023-01-09T10:20:39.959Z,2.50
2023-01-09T10:23:12.464Z,2.05
2023-01-09T10:25:52.595Z,2.42
2023-01-09T10:28:39.285Z,2.28
2023-01-09T10:31:34.984Z,2.70
2023-01-09T10:34:13.784Z,2.05
2023-01-09T10:36:59.978Z,1.92
2023-01-09T10:39:37.282Z,2.00
2023-01-09T10:42:21.233Z,1.98
2023-01-09T10:44:54.106Z,1.55
2023-01-09T10:47:30.419Z,1.63
2023-01-09T10:49:58.828Z,1.50
2023-01-09T10:52:33.276Z,1.52
2023-01-09T10:55:16.970Z,1.50
2023-01-09T10:57:46.800Z,1.60
2023-01-09T11:00:17.417Z,1.52
2023-01-09T11:02:44.944Z,1.70
2023-01-09T11:05:14.883Z,1.50
2023-01-09T11:07:44.449Z,1.50
2023-01-09T11:10:13.728Z,1.63
2023-01-09T11:12:41.420Z,2.33
2023-01-09T11:15:19.223Z,1.67
2023-01-09T11:17:51.292Z,1.80
2023-01-09T11:20:28.695Z,1.70
2023-01-09T11:22:57.460Z,2.30
2023-01-09T11:25:26.351Z,1.80
2023-01-09T11:28:05.181Z,2.38
2023-01-09T11:30:56.711Z,2.63
2023-01-09T11:33:29.824Z,2.40
2023-01-09T11:36:13.870Z,2.08
2023-01-09T11:38:55.157Z,3.25
2023-01-09T11:41:35.802Z,2.65
2023-01-09T11:44:04.672Z,2.38
2023-01-09T11:46:33.318Z,2.47
2023-01-09T11:49:01.610Z,2.10
2023-01-09T11:51:35.722Z,2.15
2023-01-09T11:54:25.277Z,2.25
2023-01-09T11:56:52.386Z,2.57
2023-01-09T11:59:26.352Z,2.20
2023-01-09T12:02:10.569Z,2.22
2023-01-09T12:04:56.108Z,2.47
2023-01-09T12:07:48.525Z,2.60
2023-01-09T12:10:36.161Z,2.65
2023-01-09T12:13:21.327Z,2.67
2023-01-09T12:16:09.323Z,3.35
2023-01-09T12:19:07.190Z,2.45
2023-01-09T12:21:35.007Z,2.92
2023-01-09T12:24:30.663Z,2.83
2023-01-09T12:27:18.463Z,2.45
2023-01-09T12:30:04.919Z,2.17
2023-01-09T12:32:50.503Z,2.50
2023-01-09T12:35:23.110Z,3.20
2023-01-09T12:38:02.592Z,2.70
2023-01-09T12:40:42.632Z,2.13
2023-01-09T12:43:25.610Z,2.38
2023-01-09T12:46:15.955Z,3.00
2023-01-09T12:48:54.437Z,2.60
2023-01-09T12:51:48.752Z,2.80
2023-01-09T12:54:31.521Z,2.13
2023-01-09T12:57:04.256Z,2.55
2023-01-09T12:59:41.926Z,2.20
2023-01-09T13:02:34.175Z,2.30
2023-01-09T13:05:11.434Z,2.40
2023-01-09T13:07:46.318Z,2.42
2023-01-09T13:10:27.263Z,2.17
2023-01-09T13:12:55.547Z,2.30
2023-01-09T13:15:26.993Z,2.15
2023-01-09T13:18:12.604Z,2.40
2023-01-09T13:20:47.749Z,2.60
2023-01-09T13:23:35.650Z,2.10
2023-01-09T13:26:14.571Z,2.30
2023-01-09T13:28:48.338Z,2.20
2023-01-09T13:31:36.266Z,2.60
2023-01-09T13:34:08.698Z,2.75
2023-01-09T13:36:40.099Z,2.75
2023-01-09T13:39:07.189Z,2.22
2023-01-09T13:42:04.529Z,2.45
2023-01-09T13:44:32.967Z,2.20
2023-01-09T13:47:03.236Z,1.95
2023-01-09T13:49:32.758Z,2.75
2023-01-09T13:52:01.442Z,2.43
2023-01-09T13:54:46.743Z,2.33
2023-01-09T13:57:28.760Z,2.08
2023-01-09T14:00:19.431Z,2.40
2023-01-09T14:02:46.944Z,1.98
2023-01-09T14:05:33.669Z,2.22
2023-01-09T14:08:17.776Z,2.05
2023-01-09T14:10:44.438Z,2.22
2023-01-09T14:13:26.243Z,2.63
2023-01-09T14:16:04.295Z,2.67
2023-01-09T14:18:34.761Z,2.33
2023-01-09T14:23:52.299Z,2.42
2023-01-09T14:26:25.702Z,2.75
2023-01-09T14:28:52.504Z,2.85
2023-01-09T14:31:32.823Z,2.28
2023-01-09T14:37:00.916Z,2.88
2023-01-09T14:42:06.317Z,2.03
2023-01-09T14:44:44.673Z,2.05
2023-01-09T14:47:32.550Z,2.28
2023-01-09T14:50:06.035Z,3.10
2023-01-09T14:52:47.649Z,2.55
2023-01-09T14:55:26.834Z,2.15
2023-01-09T14:57:55.139Z,2.55
2023-01-09T15:00:23.377Z,2.13
2023-01-09T15:02:52.646Z,2.20
2023-01-09T15:05:26.058Z,2.15
2023-01-09T15:07:57.308Z,2.60
2023-01-09T15:10:31.386Z,2.95
2023-01-09T15:13:00.611Z,2.38
2023-01-09T15:15:28.745Z,3.33
2023-01-09T15:18:01.771Z,2.30
2023-01-09T15:20:30.728Z,3.08
2023-01-09T15:23:00.821Z,3.13
2023-01-09T15:25:38.955Z,3.67
2023-01-09T15:28:25.488Z,2.60
2023-01-09T15:31:06.240Z,2.55
2023-01-09T15:33:34.495Z,2.72
2023-01-09T15:36:04.495Z,2.40
2023-01-09T15:38:32.668Z,2.50
2023-01-09T15:41:04.315Z,2.75
2023-01-09T15:43:32.087Z,3.40
2023-01-09T15:45:59.963Z,2.70
2023-01-09T15:48:32.940Z,2.95
2023-01-09T15:51:07.624Z,3.67
2023-01-09T15:53:34.919Z,3.17
2023-01-09T15:56:12.441Z,3.28
2023-01-09T15:58:50.072Z,3.38
2023-01-09T16:01:41.985Z,2.95
2023-01-09T16:04:11.534Z,3.35
2023-01-09T16:06:49.974Z,3.23
2023-01-09T16:09:26.152Z,2.85
2023-01-09T16:11:56.382Z,3.53
2023-01-09T16:14:30.486Z,2.60
2023-01-09T16:17:07.477Z,3.25
2023-01-09T16:19:50.962Z,2.58
2023-01-09T16:22:30.658Z,3.55
2023-01-09T16:25:00.398Z,3.25
2023-01-09T16:27:33.436Z,2.83
2023-01-09T16:30:07.206Z,3.50
2023-01-09T16:32:47.381Z,3.10
2023-01-09T16:35:21.450Z,3.15
2023-01-09T16:37:48.324Z,4.13
2023-01-09T16:40:24.228Z,3.83
2023-01-09T16:43:07.227Z,4.70
2023-01-09T16:45:39.595Z,4.10
2023-01-09T16:48:20.658Z,4.25
2023-01-09T16:50:47.825Z,4.65
2023-01-09T16:53:22.100Z,3.65
2023-01-09T16:55:49.757Z,3.65
2023-01-09T16:58:25.520Z,3.53
2023-01-09T17:00:53.159Z,2.83
2023-01-09T17:03:20.412Z,2.88
2023-01-09T17:05:53.321Z,2.97
2023-01-09T17:08:32.158Z,2.63
2023-01-09T17:10:58.947Z,2.28
2023-01-09T17:13:26.055Z,2.03
2023-01-09T17:15:54.786Z,2.05
2023-01-09T17:18:24.360Z,2.50
2023-01-09T17:20:53.549Z,2.57
2023-01-09T17:23:25.796Z,2.20
2023-01-09T17:26:15.967Z,1.92
2023-01-09T17:28:49.214Z,2.38
2023-01-09T17:31:16.252Z,2.63
2023-01-09T17:33:43.263Z,3.47
2023-01-09T17:36:30.614Z,3.20
2023-01-09T17:38:58.170Z,3.50
2023-01-09T17:41:27.508Z,3.53
2023-01-09T17:43:55.302Z,2.75
2023-01-09T17:46:33.292Z,3.22
2023-01-09T17:49:00.995Z,3.03
2023-01-09T17:51:29.291Z,2.47
2023-01-09T17:53:56.763Z,2.65
2023-01-09T17:56:30.080Z,3.55
2023-01-09T17:58:56.827Z,2.67
2023-01-09T18:01:23.741Z,2.58
2023-01-09T18:03:50.728Z,2.63
2023-01-09T18:06:19.824Z,2.40
2023-01-09T18:08:46.862Z,2.40
2023-01-09T18:11:19.172Z,2.80
2023-01-09T18:13:47.737Z,2.80
2023-01-09T18:16:17.127Z,3.25
2023-01-09T18:18:45.190Z,3.22
2023-01-09T18:21:15.422Z,3.25
2023-01-09T18:23:42.256Z,3.00
2023-01-09T18:26:10.653Z,2.75
2023-01-09T18:28:38.969Z,2.80
2023-01-09T18:31:06.525Z,2.90
2023-01-09T18:33:33.488Z,2.60
2023-01-09T18:36:10.455Z,2.97
2023-01-09T18:38:37.324Z,2.60
2023-01-09T18:41:04.918Z,2.70
2023-01-09T18:43:31.806Z,2.80
2023-01-09T18:45:58.615Z,2.33
2023-01-09T18:48:25.366Z,2.47
2023-01-09T18:51:01.476Z,2.83
2023-01-09T18:53:28.184Z,2.70
2023-01-09T18:55:54.867Z,2.38
2023-01-09T18:58:21.651Z,2.67
2023-01-09T19:00:50.191Z,2.55
2023-01-09T19:03:17.102Z,2.70
2023-01-09T19:05:43.867Z,2.67
2023-01-09T19:08:10.568Z,3.20
2023-01-09T19:10:37.303Z,3.50
2023-01-09T19:13:03.987Z,2.92
2023-01-09T19:15:30.912Z,3.30
2023-01-09T19:17:58.000Z,3.25
2023-01-09T19:20:24.780Z,2.88
2023-01-09T19:22:51.494Z,3.83
2023-01-09T19:25:18.199Z,2.75
2023-01-09T19:27:44.896Z,3.25
2023-01-09T19:30:12.765Z,3.20
2023-01-09T19:32:40.072Z,3.13
2023-01-09T19:35:07.041Z,2.92
2023-01-09T19:37:35.005Z,3.35
2023-01-09T19:40:01.715Z,3.25
2023-01-09T19:42:28.493Z,3.40
2023-01-09T19:44:55.157Z,3.17
2023-01-09T19:47:21.824Z,3.75
2023-01-09T19:49:48.603Z,4.07
2023-01-09T19:52:15.282Z,3.50
2023-01-09T19:54:42.039Z,3.35
2023-01-09T19:57:08.820Z,3.95
2023-01-09T19:59:36.218Z,4.28
2023-01-09T20:02:03.459Z,9.07
2023-01-09T20:04:30.258Z,6.25
2023-01-09T20:06:57.167Z,4.53
2023-01-09T20:09:27.410Z,10.07
2023-01-09T20:11:54.248Z,6.50
2023-01-09T20:14:22.287Z,5.13
2023-01-09T20:16:50.032Z,4.38
2023-01-09T20:19:16.998Z,11.63
2023-01-09T20:21:43.921Z,7.97
2023-01-09T20:24:14.660Z,4.65
2023-01-09T20:26:41.763Z,3.00
2023-01-09T20:29:08.781Z,3.88
2023-01-09T20:31:36.072Z,4.03
2023-01-09T20:34:03.151Z,3.10
2023-01-09T20:36:30.909Z,2.72
2023-01-09T20:39:02.180Z,3.30
2023-01-09T20:41:30.799Z,2.55
2023-01-09T20:44:02.844Z,2.70
2023-01-09T20:46:33.120Z,3.10
2023-01-09T20:49:03.380Z,2.85
2023-01-09T20:53:58.406Z,3.00
2023-01-09T20:56:26.930Z,3.15
2023-01-09T20:58:56.639Z,3.40
2023-01-09T21:01:24.551Z,3.15
2023-01-09T21:03:52.388Z,3.33
2023-01-09T21:06:21.093Z,2.85
2023-01-09T21:08:50.197Z,2.85
2023-01-09T21:11:17.839Z,3.20
2023-01-09T21:13:44.545Z,3.90
2023-01-09T21:16:14.538Z,2.75
2023-01-09T21:18:42.618Z,3.63
2023-01-09T21:21:15.003Z,3.65
2023-01-09T21:23:51.870Z,3.60
2023-01-09T21:26:22.246Z,3.28
2023-01-09T21:31:20.346Z,3.45
2023-01-09T21:33:49.402Z,3.60
2023-01-09T21:36:17.123Z,3.25
2023-01-09T21:38:43.854Z,2.80
2023-01-09T21:41:49.129Z,3.38
2023-01-09T21:44:51.160Z,3.03
2023-01-09T21:47:17.883Z,3.00
2023-01-09T21:49:45.347Z,3.10
2023-01-09T21:52:13.875Z,4.63
2023-01-09T21:54:41.790Z,3.00
2023-01-09T21:57:09.119Z,2.80
2023-01-09T21:59:36.514Z,3.10
2023-01-09T22:02:03.213Z,3.20
2023-01-09T22:04:30.550Z,2.45
2023-01-09T22:06:57.352Z,3.17
2023-01-09T22:09:24.101Z,3.67
2023-01-09T22:11:50.842Z,3.28
2023-01-09T22:14:18.754Z,2.90
2023-01-09T22:16:46.244Z,2.33
2023-01-09T22:19:14.376Z,2.60
2023-01-09T22:21:41.128Z,2.58
2023-01-09T22:24:08.116Z,3.15
2023-01-09T22:26:35.260Z,3.08
2023-01-09T22:29:02.003Z,2.78
2023-01-09T22:31:29.309Z,3.15
2023-01-09T22:33:58.442Z,2.50
2023-01-09T22:36:27.103Z,2.90
2023-01-09T22:38:55.213Z,3.50
2023-01-09T22:41:22.806Z,3.75
2023-01-09T22:43:49.593Z,3.10
2023-01-09T22:46:16.369Z,3.03
2023-01-09T22:48:43.188Z,3.40
2023-01-09T22:51:13.984Z,2.70
2023-01-09T22:53:41.143Z,3.25
2023-01-09T22:56:12.075Z,2.80
2023-01-09T22:58:38.853Z,3.00
2023-01-09T23:01:06.645Z,3.10
2023-01-09T23:03:33.509Z,2.63
2023-01-09T23:06:11.448Z,2.88
2023-01-09T23:08:39.221Z,2.88
2023-01-09T23:11:09.093Z,2.75
2023-01-09T23:13:35.888Z,3.22
2023-01-09T23:16:03.467Z,2.88
2023-01-09T23:18:30.367Z,2.70
2023-01-09T23:20:59.766Z,2.50
2023-01-09T23:23:28.050Z,2.70
2023-01-09T23:25:57.135Z,2.40
2023-01-09T23:28:24.804Z,2.92
2023-01-09T23:30:52.117Z,2.35
2023-01-09T23:33:21.095Z,2.30
2023-01-09T23:35:48.616Z,2.78
2023-01-09T23:38:16.523Z,3.15
2023-01-09T23:40:43.239Z,3.25
2023-01-09T23:43:14.584Z,2.95
2023-01-09T23:45:43.900Z,2.63
2023-01-09T23:48:15.944Z,2.67
2023-01-09T23:50:44.829Z,3.30
2023-01-09T23:53:11.559Z,2.50
2023-01-09T23:55:38.303Z,2.45
2023-01-09T23:58:05.007Z,2.65
